Time;durP1;ratioP1;P1;durP2;ratioP2;P2;SDS_P1;SDS_P2;PMS_P1;PMS_P2;Temp;Humidity;BMP_temperature;BMP_pressure;BME280_temperature;BME280_humidity;BME280_pressure;Samples;Min_cycle;Max_cycle;Signal;HPM_P1;HPM_P2
2021/12/14 00:01:44;;;;;;;;;;;;;;;;;;5039821;28;19913;-68
2021/12/14 00:04:10;;;;;;;;;;;;;;;;;;5039662;28;19905;-69
2021/12/14 00:06:36;;;;;;;;;;;;;;;;;;5044750;28;19944;-69
2021/12/14 00:09:03;;;;;;;;;;;;;;;;;;5051934;28;19916;-69
2021/12/14 00:11:46;;;;;;;;;;;;;;;;;;5056090;28;19955;-68
2021/12/14 00:16:43;;;;;;;;;;;;;;;;;;5061413;28;19971;-70
2021/12/14 00:19:09;;;;;;;;;;;;;;;;;;5100642;28;19920;-69
2021/12/14 00:21:35;;;;;;;;;;;;;;;;;;5128212;27;19903;-69
2021/12/14 00:24:07;;;;;;;;;;;;;;;;;;5166945;27;19903;-69
2021/12/14 00:26:33;;;;;;;;;;;;;;;;;;5163555;27;19925;-68
2021/12/14 00:28:59;;;;;;;;;;;;;;;;;;5162503;27;19959;-70
2021/12/14 00:31:26;;;;;;;;;;;;;;;;;;5171496;27;19948;-70
2021/12/14 00:33:52;;;;;;;;;;;;;;;;;;5181049;27;19966;-70
2021/12/14 00:36:18;;;;;;;;;;;;;;;;;;5164171;27;19958;-69
2021/12/14 00:38:43;;;;;;;;;;;;;;;;;;5148033;27;19932;-68
2021/12/14 00:41:09;;;;;;;;;;;;;;;;;;5174244;27;19907;-69
2021/12/14 00:43:35;;;;;;;;;;;;;;;;;;5170148;27;19930;-70
2021/12/14 00:46:01;;;;;;;;;;;;;;;;;;5165688;27;19926;-69
2021/12/14 00:48:27;;;;;;;;;;;;;;;;;;5182865;27;19919;-70
2021/12/14 00:50:53;;;;;;;;;;;;;;;;;;5177274;27;19929;-69
2021/12/14 00:53:19;;;;;;;;;;;;;;;;;;5172422;27;19904;-70
2021/12/14 00:55:45;;;;;;;;;;;;;;;;;;5162027;27;19903;-70
2021/12/14 00:58:11;;;;;;;;;;;;;;;;;;5161816;27;19972;-69
2021/12/14 01:00:37;;;;;;;;;;;;;;;;;;5164108;27;19908;-69
2021/12/14 01:03:03;;;;;;;;;;;;;;;;;;5181491;27;19923;-69
2021/12/14 01:05:31;;;;;;;;;;;;;;;;;;5158307;27;19935;-69
2021/12/14 01:07:57;;;;;;;;;;;;;;;;;;5162024;27;19935;-68
2021/12/14 01:10:23;;;;;;;;;;;;;;;;;;5160504;27;19907;-69
2021/12/14 01:12:53;;;;;;;;;;;;;;;;;;5161616;27;19904;-70
2021/12/14 01:18:01;;;;;;;;;;;;;;;;;;5162390;27;19925;-69
2021/12/14 01:20:32;;;;;;;;;;;;;;;;;;5169706;27;19903;-69
2021/12/14 01:23:01;;;;;;;;;;;;;;;;;;5137658;27;19942;-69
2021/12/14 01:25:27;;;;;;;;;;;;;;;;;;5143816;27;19915;-69
2021/12/14 01:27:53;;;;;;;;;;;;;;;;;;5147365;27;19935;-69
2021/12/14 01:30:19;;;;;;;;;;;;;;;;;;5177783;27;19919;-69
2021/12/14 01:32:46;;;;;;;;;;;;;;;;;;5167492;27;19914;-69
2021/12/14 01:35:14;;;;;;;;;;;;;;;;;;5169287;27;19918;-69
2021/12/14 01:37:45;;;;;;;;;;;;;;;;;;5161525;27;19920;-69
2021/12/14 01:40:19;;;;;;;;;;;;;;;;;;5181868;27;19903;-68
2021/12/14 01:42:44;;;;;;;;;;;;;;;;;;5161484;27;19979;-68
2021/12/14 01:45:10;;;;;;;;;;;;;;;;;;5172531;27;19918;-68
2021/12/14 01:47:36;;;;;;;;;;;;;;;;;;5176942;27;19945;-68
2021/12/14 01:50:02;;;;;;;;;;;;;;;;;;5161720;27;19915;-69
2021/12/14 01:52:28;;;;;;;;;;;;;;;;;;5152827;27;19904;-69
2021/12/14 01:54:54;;;;;;;;;;;;;;;;;;5164728;27;19923;-68
2021/12/14 01:57:20;;;;;;;;;;;;;;;;;;5177828;27;19904;-68
2021/12/14 01:59:46;;;;;;;;;;;;;;;;;;5160928;27;19991;-69
2021/12/14 02:02:23;;;;;;;;;;;;;;;;;;5158437;27;19979;-69
2021/12/14 02:04:49;;;;;;;;;;;;;;;;;;5172131;27;19938;-69
2021/12/14 02:07:15;;;;;;;;;;;;;;;;;;5149803;27;19934;-70
2021/12/14 02:09:41;;;;;;;;;;;;;;;;;;5180406;27;19909;-69
2021/12/14 02:12:06;;;;;;;;;;;;;;;;;;5179109;27;20724;-69
2021/12/14 02:14:32;;;;;;;;;;;;;;;;;;5180734;27;19914;-69
2021/12/14 02:16:58;;;;;;;;;;;;;;;;;;5159980;27;19919;-69
2021/12/14 02:19:24;;;;;;;;;;;;;;;;;;5143235;27;19906;-70
2021/12/14 02:21:50;;;;;;;;;;;;;;;;;;5157212;27;19923;-69
2021/12/14 02:24:19;;;;;;;;;;;;;;;;;;5181708;27;19903;-69
2021/12/14 02:26:45;;;;;;;;;;;;;;;;;;5163188;27;19919;-69
2021/12/14 02:29:11;;;;;;;;;;;;;;;;;;5145663;27;19927;-68
2021/12/14 02:31:37;;;;;;;;;;;;;;;;;;5162534;27;19909;-68
2021/12/14 02:34:04;;;;;;;;;;;;;;;;;;5178318;27;19961;-69
2021/12/14 02:36:30;;;;;;;;;;;;;;;;;;5161172;27;19989;-70
2021/12/14 02:39:06;;;;;;;;;;;;;;;;;;5165284;27;19911;-69
2021/12/14 02:41:32;;;;;;;;;;;;;;;;;;5165710;27;19995;-69
2021/12/14 02:43:58;;;;;;;;;;;;;;;;;;5145802;27;19903;-69
2021/12/14 02:46:24;;;;;;;;;;;;;;;;;;5163063;27;19932;-69
2021/12/14 02:48:50;;;;;;;;;;;;;;;;;;5163138;27;19907;-69
2021/12/14 02:51:16;;;;;;;;;;;;;;;;;;5157476;27;19903;-69
2021/12/14 02:53:41;;;;;;;;;;;;;;;;;;5166521;27;19910;-70
2021/12/14 02:56:07;;;;;;;;;;;;;;;;;;5141649;27;19904;-68
2021/12/14 02:58:33;;;;;;;;;;;;;;;;;;5135391;27;19926;-69
2021/12/14 03:01:01;;;;;;;;;;;;;;;;;;5166827;27;19910;-69
2021/12/14 03:03:27;;;;;;;;;;;;;;;;;;5153239;27;19958;-69
2021/12/14 03:05:53;;;;;;;;;;;;;;;;;;5155194;27;19919;-69
2021/12/14 03:08:19;;;;;;;;;;;;;;;;;;5178017;27;19907;-67
2021/12/14 03:10:56;;;;;;;;;;;;;;;;;;5150301;27;19945;-68
2021/12/14 03:13:22;;;;;;;;;;;;;;;;;;5141320;27;19919;-69
2021/12/14 03:15:50;;;;;;;;;;;;;;;;;;5159990;27;19964;-68
2021/12/14 03:18:16;;;;;;;;;;;;;;;;;;5158908;27;19967;-68
2021/12/14 03:20:42;;;;;;;;;;;;;;;;;;5159312;27;19989;-68
2021/12/14 03:23:08;;;;;;;;;;;;;;;;;;5137486;27;19919;-68
2021/12/14 03:25:34;;;;;;;;;;;;;;;;;;5156329;27;19918;-69
2021/12/14 03:28:00;;;;;;;;;;;;;;;;;;5162225;27;19903;-68
2021/12/14 03:30:26;;;;;;;;;;;;;;;;;;5177720;27;19919;-69
2021/12/14 03:32:52;;;;;;;;;;;;;;;;;;5159055;27;19982;-69
2021/12/14 03:35:19;;;;;;;;;;;;;;;;;;5161939;27;19910;-69
2021/12/14 03:37:45;;;;;;;;;;;;;;;;;;5159081;27;19926;-68
2021/12/14 03:40:10;;;;;;;;;;;;;;;;;;5159123;27;19904;-69
2021/12/14 03:42:37;;;;;;;;;;;;;;;;;;5158463;27;20285;-69
2021/12/14 03:45:03;;;;;;;;;;;;;;;;;;5166040;27;19919;-69
2021/12/14 03:47:29;;;;;;;;;;;;;;;;;;5162391;27;19903;-68
2021/12/14 03:49:55;;;;;;;;;;;;;;;;;;5180078;27;19919;-69
2021/12/14 03:52:21;;;;;;;;;;;;;;;;;;5169735;27;19919;-68
2021/12/14 03:54:47;;;;;;;;;;;;;;;;;;5182025;27;19902;-69
2021/12/14 03:57:13;;;;;;;;;;;;;;;;;;5165814;27;19903;-69
2021/12/14 03:59:39;;;;;;;;;;;;;;;;;;5183270;27;19914;-68
2021/12/14 04:02:04;;;;;;;;;;;;;;;;;;5148051;27;19919;-68
2021/12/14 04:04:31;;;;;;;;;;;;;;;;;;5183537;27;19970;-68
2021/12/14 04:06:57;;;;;;;;;;;;;;;;;;5147662;27;19919;-68
2021/12/14 04:09:23;;;;;;;;;;;;;;;;;;5172181;27;19910;-68
2021/12/14 04:11:48;;;;;;;;;;;;;;;;;;5181658;27;19903;-68
2021/12/14 04:14:14;;;;;;;;;;;;;;;;;;5184162;27;19903;-68
2021/12/14 04:16:40;;;;;;;;;;;;;;;;;;5162188;27;19920;-67
2021/12/14 04:19:07;;;;;;;;;;;;;;;;;;5158041;27;19941;-68
2021/12/14 04:21:33;;;;;;;;;;;;;;;;;;5182836;27;19911;-68
2021/12/14 04:23:59;;;;;;;;;;;;;;;;;;5183278;27;19907;-68
2021/12/14 04:26:26;;;;;;;;;;;;;;;;;;5182364;27;19910;-69
2021/12/14 04:28:52;;;;;;;;;;;;;;;;;;5178507;27;19924;-68
2021/12/14 04:31:18;;;;;;;;;;;;;;;;;;5172209;27;19920;-68
2021/12/14 04:33:46;;;;;;;;;;;;;;;;;;5161895;27;19926;-68
2021/12/14 04:36:12;;;;;;;;;;;;;;;;;;5169433;27;19999;-67
2021/12/14 04:38:48;;;;;;;;;;;;;;;;;;5153349;27;19919;-68
2021/12/14 04:52:13;;;;;;;;;;;;;;;;;;5163621;27;19907;-69
2021/12/14 04:54:39;;;;;;;;;;;;;;;;;;5163026;27;19957;-68
2021/12/14 04:57:05;;;;;;;;;;;;;;;;;;5180502;27;19934;-69
2021/12/14 04:59:30;;;;;;;;;;;;;;;;;;5164193;27;19910;-69
2021/12/14 05:01:56;;;;;;;;;;;;;;;;;;5178734;27;19919;-69
2021/12/14 05:04:23;;;;;;;;;;;;;;;;;;5163932;27;19984;-67
2021/12/14 05:06:55;;;;;;;;;;;;;;;;;;5178475;27;19907;-68
2021/12/14 05:09:22;;;;;;;;;;;;;;;;;;5179616;27;19903;-68
2021/12/14 05:11:48;;;;;;;;;;;;;;;;;;5149281;27;19910;-68
2021/12/14 05:14:14;;;;;;;;;;;;;;;;;;5175357;27;19946;-67
2021/12/14 05:16:40;;;;;;;;;;;;;;;;;;5182837;27;19915;-68
2021/12/14 05:19:06;;;;;;;;;;;;;;;;;;5147085;27;19976;-67
2021/12/14 05:21:32;;;;;;;;;;;;;;;;;;5161397;27;19904;-67
2021/12/14 05:24:17;;;;;;;;;;;;;;;;;;5161883;27;19924;-67
2021/12/14 05:26:43;;;;;;;;;;;;;;;;;;5178851;27;20046;-68
2021/12/14 05:29:10;;;;;;;;;;;;;;;;;;5181302;27;19907;-69
2021/12/14 05:31:36;;;;;;;;;;;;;;;;;;5172722;27;19932;-69
2021/12/14 05:34:01;;;;;;;;;;;;;;;;;;5176812;27;19903;-69
2021/12/14 05:36:27;;;;;;;;;;;;;;;;;;5161764;27;19920;-69
2021/12/14 05:44:04;;;;;;;;;;;;;;;;;;5161136;27;19920;-69
2021/12/14 05:46:30;;;;;;;;;;;;;;;;;;5135974;27;19914;-69
2021/12/14 05:48:56;;;;;;;;;;;;;;;;;;5164557;27;19963;-69
2021/12/14 05:51:22;;;;;;;;;;;;;;;;;;5179479;27;19934;-69
2021/12/14 05:53:48;;;;;;;;;;;;;;;;;;5157893;27;19903;-68
2021/12/14 05:56:14;;;;;;;;;;;;;;;;;;5172084;27;19970;-69
2021/12/14 05:58:40;;;;;;;;;;;;;;;;;;5174377;27;19962;-69
2021/12/14 06:01:06;;;;;;;;;;;;;;;;;;5161453;27;19910;-69
2021/12/14 06:03:32;;;;;;;;;;;;;;;;;;5155224;27;19914;-69
2021/12/14 06:05:58;;;;;;;;;;;;;;;;;;5180952;27;19947;-69
2021/12/14 06:08:24;;;;;;;;;;;;;;;;;;5176548;27;19983;-69
2021/12/14 06:10:50;;;;;;;;;;;;;;;;;;5143372;27;19947;-69
2021/12/14 06:13:19;;;;;;;;;;;;;;;;;;5142528;27;19951;-69
2021/12/14 06:15:45;;;;;;;;;;;;;;;;;;5160519;27;19920;-69
2021/12/14 06:18:11;;;;;;;;;;;;;;;;;;5171710;27;19903;-68
2021/12/14 06:20:37;;;;;;;;;;;;;;;;;;5161500;27;19906;-69
2021/12/14 06:23:03;;;;;;;;;;;;;;;;;;5150337;27;19976;-68
2021/12/14 06:25:29;;;;;;;;;;;;;;;;;;5179793;27;19903;-69
2021/12/14 06:27:57;;;;;;;;;;;;;;;;;;5160082;27;19903;-68
2021/12/14 06:30:23;;;;;;;;;;;;;;;;;;5161968;27;19924;-69
2021/12/14 06:32:49;;;;;;;;;;;;;;;;;;5181032;27;19965;-69
2021/12/14 06:35:19;;;;;;;;;;;;;;;;;;5159607;27;19957;-69
2021/12/14 06:40:26;;;;;;;;;;;;;;;;;;5159306;27;20018;-68
2021/12/14 06:42:52;;;;;;;;;;;;;;;;;;5159815;27;19923;-69
2021/12/14 06:45:19;;;;;;;;;;;;;;;;;;5159893;27;19904;-68
2021/12/14 06:47:45;;;;;;;;;;;;;;;;;;5142146;27;19955;-68
2021/12/14 06:50:11;;;;;;;;;;;;;;;;;;5166466;27;19903;-68
2021/12/14 06:52:37;;;;;;;;;;;;;;;;;;5174754;27;19921;-68
2021/12/14 06:55:03;;;;;;;;;;;;;;;;;;5162469;27;19942;-68
2021/12/14 06:57:29;;;;;;;;;;;;;;;;;;5175855;27;19910;-68
2021/12/14 06:59:55;;;;;;;;;;;;;;;;;;5174550;27;19910;-68
2021/12/14 07:02:21;;;;;;;;;;;;;;;;;;5143547;27;19927;-68
2021/12/14 07:04:49;;;;;;;;;;;;;;;;;;5159719;27;19958;-68
2021/12/14 07:07:15;;;;;;;;;;;;;;;;;;5160122;27;19919;-68
2021/12/14 07:09:41;;;;;;;;;;;;;;;;;;5137276;27;19942;-68
2021/12/14 07:12:07;;;;;;;;;;;;;;;;;;5155614;27;19907;-69
2021/12/14 07:14:33;;;;;;;;;;;;;;;;;;5141277;27;19923;-68
2021/12/14 07:17:01;;;;;;;;;;;;;;;;;;5171814;27;19976;-68
2021/12/14 07:19:27;;;;;;;;;;;;;;;;;;5177332;27;19903;-70
2021/12/14 07:21:53;;;;;;;;;;;;;;;;;;5175836;27;19972;-69
2021/12/14 07:24:18;;;;;;;;;;;;;;;;;;5161999;27;19907;-68
2021/12/14 07:26:44;;;;;;;;;;;;;;;;;;5156080;27;19979;-68
2021/12/14 07:29:10;;;;;;;;;;;;;;;;;;5158572;27;19977;-68
2021/12/14 07:31:38;;;;;;;;;;;;;;;;;;5133045;27;19920;-69
2021/12/14 07:34:04;;;;;;;;;;;;;;;;;;5153361;27;19919;-69
2021/12/14 07:36:30;;;;;;;;;;;;;;;;;;5153746;28;19920;-69
2021/12/14 07:38:57;;;;;;;;;;;;;;;;;;5133594;28;19920;-68
2021/12/14 07:41:23;;;;;;;;;;;;;;;;;;5163138;27;19910;-69
2021/12/14 07:43:49;;;;;;;;;;;;;;;;;;5143907;27;19919;-69
2021/12/14 07:46:15;;;;;;;;;;;;;;;;;;5147482;27;19910;-69
2021/12/14 07:48:41;;;;;;;;;;;;;;;;;;5175459;27;19932;-69
2021/12/14 07:51:07;;;;;;;;;;;;;;;;;;5169759;27;19919;-69
2021/12/14 07:53:34;;;;;;;;;;;;;;;;;;5143149;27;19930;-69
2021/12/14 07:56:03;;;;;;;;;;;;;;;;;;5141004;28;20065;-68
2021/12/14 07:58:29;;;;;;;;;;;;;;;;;;5148899;27;19919;-68
2021/12/14 08:00:55;;;;;;;;;;;;;;;;;;5167656;27;19926;-68
2021/12/14 08:03:21;;;;;;;;;;;;;;;;;;5173595;27;19922;-69
2021/12/14 08:05:48;;;;;;;;;;;;;;;;;;5156141;28;19919;-69
2021/12/14 08:08:18;;;;;;;;;;;;;;;;;;5172228;27;19919;-69
2021/12/14 08:10:46;;;;;;;;;;;;;;;;;;5154843;27;19919;-68
2021/12/14 08:13:13;;;;;;;;;;;;;;;;;;5152715;27;19919;-68
2021/12/14 08:15:39;;;;;;;;;;;;;;;;;;5154435;27;19920;-68
2021/12/14 08:18:04;;;;;;;;;;;;;;;;;;5153784;27;19926;-69
2021/12/14 08:20:30;;;;;;;;;;;;;;;;;;5153275;27;19919;-68
2021/12/14 08:22:56;;;;;;;;;;;;;;;;;;5148184;27;19958;-68
2021/12/14 08:25:22;;;;;;;;;;;;;;;;;;5155599;27;20429;-69
2021/12/14 08:27:48;;;;;;;;;;;;;;;;;;5173424;27;19918;-69
2021/12/14 08:30:14;;;;;;;;;;;;;;;;;;5153585;27;19916;-68
2021/12/14 08:32:40;;;;;;;;;;;;;;;;;;5141349;27;19923;-69
2021/12/14 08:35:06;;;;;;;;;;;;;;;;;;5176294;27;19919;-68
2021/12/14 08:37:32;;;;;;;;;;;;;;;;;;5174065;27;19949;-68
2021/12/14 08:40:01;;;;;;;;;;;;;;;;;;5177758;27;19903;-69
2021/12/14 08:42:33;;;;;;;;;;;;;;;;;;5157249;27;19950;-69
2021/12/14 08:44:59;;;;;;;;;;;;;;;;;;5161615;27;20333;-69
2021/12/14 08:47:25;;;;;;;;;;;;;;;;;;5161164;27;19903;-69
2021/12/14 08:49:51;;;;;;;;;;;;;;;;;;5155775;27;19919;-67
2021/12/14 08:52:17;;;;;;;;;;;;;;;;;;5163132;27;19919;-68
2021/12/14 08:54:43;;;;;;;;;;;;;;;;;;5164845;27;19954;-67
2021/12/14 08:57:09;;;;;;;;;;;;;;;;;;5173221;27;19924;-69
2021/12/14 08:59:34;;;;;;;;;;;;;;;;;;5171130;27;19934;-69
2021/12/14 09:02:03;;;;;;;;;;;;;;;;;;5145063;27;21026;-70
2021/12/14 09:04:30;;;;;;;;;;;;;;;;;;5172824;27;19967;-69
2021/12/14 09:06:56;;;;;;;;;;;;;;;;;;5166786;27;19910;-69
2021/12/14 09:09:22;;;;;;;;;;;;;;;;;;5162465;27;19920;-68
2021/12/14 09:11:48;;;;;;;;;;;;;;;;;;5161938;27;19903;-69
2021/12/14 09:14:14;;;;;;;;;;;;;;;;;;5160568;27;19981;-68
2021/12/14 09:16:40;;;;;;;;;;;;;;;;;;5145908;27;19926;-67
2021/12/14 09:19:06;;;;;;;;;;;;;;;;;;5162644;27;19919;-68
2021/12/14 09:21:32;;;;;;;;;;;;;;;;;;5155057;27;19927;-69
2021/12/14 09:23:58;;;;;;;;;;;;;;;;;;5140059;27;19903;-67
2021/12/14 09:26:24;;;;;;;;;;;;;;;;;;5162415;27;19907;-69
2021/12/14 09:28:50;;;;;;;;;;;;;;;;;;5177806;27;20006;-67
2021/12/14 09:31:16;;;;;;;;;;;;;;;;;;5165783;27;19919;-67
2021/12/14 09:33:42;;;;;;;;;;;;;;;;;;5172610;27;19947;-68
2021/12/14 09:36:12;;;;;;;;;;;;;;;;;;5171857;27;19919;-69
2021/12/14 09:38:40;;;;;;;;;;;;;;;;;;5163394;27;19903;-70
2021/12/14 09:41:06;;;;;;;;;;;;;;;;;;5172580;27;19903;-69
2021/12/14 09:43:32;;;;;;;;;;;;;;;;;;5141400;27;19927;-70
2021/12/14 09:45:58;;;;;;;;;;;;;;;;;;5160234;27;19904;-69
2021/12/14 09:48:25;;;;;;;;;;;;;;;;;;5145623;27;19904;-69
2021/12/14 09:50:51;;;;;;;;;;;;;;;;;;5157208;27;19915;-70
2021/12/14 09:53:17;;;;;;;;;;;;;;;;;;5163042;27;19927;-71
2021/12/14 09:55:43;;;;;;;;;;;;;;;;;;5154441;27;19911;-71
2021/12/14 09:58:09;;;;;;;;;;;;;;;;;;5182214;27;19903;-71
2021/12/14 10:00:35;;;;;;;;;;;;;;;;;;5164221;27;19946;-71
2021/12/14 10:03:04;;;;;;;;;;;;;;;;;;5161576;27;19910;-69
2021/12/14 10:05:30;;;;;;;;;;;;;;;;;;5143037;27;19903;-69
2021/12/14 10:07:56;;;;;;;;;;;;;;;;;;5173920;27;19962;-70
2021/12/14 10:10:22;;;;;;;;;;;;;;;;;;5164291;27;19910;-69
2021/12/14 10:12:51;;;;;;;;;;;;;;;;;;5179634;27;19927;-70
2021/12/14 10:15:17;;;;;;;;;;;;;;;;;;5163171;27;19935;-67
2021/12/14 10:17:43;;;;;;;;;;;;;;;;;;5161033;27;19911;-72
2021/12/14 10:20:09;;;;;;;;;;;;;;;;;;5169334;27;19904;-70
2021/12/14 10:22:34;;;;;;;;;;;;;;;;;;5176766;27;19903;-69
2021/12/14 10:25:00;;;;;;;;;;;;;;;;;;5172529;27;19922;-68
2021/12/14 10:27:26;;;;;;;;;;;;;;;;;;5163018;27;19903;-68
2021/12/14 10:29:54;;;;;;;;;;;;;;;;;;5181723;27;19936;-68
2021/12/14 10:32:19;;;;;;;;;;;;;;;;;;5160199;27;19907;-69
2021/12/14 10:34:46;;;;;;;;;;;;;;;;;;5178587;27;19910;-67
2021/12/14 10:37:17;;;;;;;;;;;;;;;;;;5164684;27;19919;-70
2021/12/14 10:45:03;;;;;;;;;;;;;;;;;;5173216;27;19906;-69
2021/12/14 10:47:29;;;;;;;;;;;;;;;;;;5161721;27;19918;-69
2021/12/14 10:49:55;;;;;;;;;;;;;;;;;;5145642;27;19903;-70
2021/12/14 10:52:21;;;;;;;;;;;;;;;;;;5161792;27;19907;-70
2021/12/14 10:54:47;;;;;;;;;;;;;;;;;;5163450;27;19910;-70
2021/12/14 10:57:13;;;;;;;;;;;;;;;;;;5162673;27;19931;-71
2021/12/14 10:59:39;;;;;;;;;;;;;;;;;;5157313;27;19929;-71
2021/12/14 11:02:05;;;;;;;;;;;;;;;;;;5157810;27;19923;-71
2021/12/14 11:04:37;;;;;;;;;;;;;;;;;;5142886;27;19903;-71
2021/12/14 11:07:06;;;;;;;;;;;;;;;;;;5159748;27;19971;-70
2021/12/14 11:09:42;;;;;;;;;;;;;;;;;;5158276;27;19921;-70
2021/12/14 11:12:08;;;;;;;;;;;;;;;;;;5180225;27;19903;-70
2021/12/14 11:14:37;;;;;;;;;;;;;;;;;;5142524;27;19904;-68
2021/12/14 11:20:07;;;;;;;;;;;;;;;;;;5100797;28;19904;-71
2021/12/14 11:22:33;;;;;;;;;;;;;;;;;;5074000;28;19916;-69
2021/12/14 11:24:59;;;;;;;;;;;;;;;;;;5083978;28;19955;-72
2021/12/14 11:27:25;;;;;;;;;;;;;;;;;;5117449;28;19957;-70
2021/12/14 11:29:51;;;;;;;;;;;;;;;;;;5118230;28;19911;-70
2021/12/14 11:32:17;;;;;;;;;;;;;;;;;;5117365;28;19911;-69
2021/12/14 11:34:45;;;;;;;;;;;;;;;;;;5117191;28;19912;-68
2021/12/14 11:37:15;;;;;;;;;;;;;;;;;;5115268;28;19964;-69
2021/12/14 11:39:41;;;;;;;;;;;;;;;;;;5096507;28;19927;-68
2021/12/14 11:42:07;;;;;;;;;;;;;;;;;;5114903;28;19911;-68
2021/12/14 11:44:33;;;;;;;;;;;;;;;;;;5117225;28;19904;-69
2021/12/14 11:46:59;;;;;;;;;;;;;;;;;;5117257;28;19971;-68
2021/12/14 11:49:25;;;;;;;;;;;;;;;;;;5100243;28;20002;-69
2021/12/14 11:51:51;;;;;;;;;;;;;;;;;;5157360;27;19915;-69
2021/12/14 11:54:18;;;;;;;;;;;;;;;;;;5167319;27;19924;-70
2021/12/14 11:56:44;;;;;;;;;;;;;;;;;;5155002;27;19903;-69
2021/12/14 11:59:10;;;;;;;;;;;;;;;;;;5159058;27;19918;-70
2021/12/14 12:01:46;;;;;;;;;;;;;;;;;;5159357;27;19915;-69
2021/12/14 12:04:12;;;;;;;;;;;;;;;;;;5159433;27;20058;-71
2021/12/14 12:11:51;;;;;;;;;;;;;;;;;;5174083;27;19908;-70
2021/12/14 12:14:17;;;;;;;;;;;;;;;;;;5164727;27;19960;-70
2021/12/14 12:16:43;;;;;;;;;;;;;;;;;;5184373;27;19927;-69
2021/12/14 12:19:09;;;;;;;;;;;;;;;;;;5166425;27;19925;-69
2021/12/14 12:21:35;;;;;;;;;;;;;;;;;;5164588;27;19907;-70
2021/12/14 12:24:01;;;;;;;;;;;;;;;;;;5162762;27;19914;-69
2021/12/14 12:26:29;;;;;;;;;;;;;;;;;;5145017;27;19911;-69
2021/12/14 12:29:00;;;;;;;;;;;;;;;;;;5156280;27;19909;-69
2021/12/14 12:31:26;;;;;;;;;;;;;;;;;;5165686;27;19923;-70
2021/12/14 12:33:52;;;;;;;;;;;;;;;;;;5167011;27;19983;-70
2021/12/14 12:36:18;;;;;;;;;;;;;;;;;;5145030;27;19903;-68
2021/12/14 12:38:44;;;;;;;;;;;;;;;;;;5164502;27;19927;-69
2021/12/14 12:41:10;;;;;;;;;;;;;;;;;;5145272;27;19903;-69
2021/12/14 12:43:36;;;;;;;;;;;;;;;;;;5160876;27;19978;-69
2021/12/14 12:46:02;;;;;;;;;;;;;;;;;;5174047;27;19907;-69
2021/12/14 12:48:28;;;;;;;;;;;;;;;;;;5156403;27;19903;-70
2021/12/14 12:50:54;;;;;;;;;;;;;;;;;;5165252;27;19903;-69
2021/12/14 12:53:20;;;;;;;;;;;;;;;;;;5145562;27;19924;-70
2021/12/14 12:55:49;;;;;;;;;;;;;;;;;;5163477;27;19982;-72
2021/12/14 12:58:17;;;;;;;;;;;;;;;;;;5153611;27;19917;-72
2021/12/14 13:00:43;;;;;;;;;;;;;;;;;;5158539;27;19985;-70
2021/12/14 13:03:12;;;;;;;;;;;;;;;;;;5170225;27;19938;-70
2021/12/14 13:05:38;;;;;;;;;;;;;;;;;;5183488;27;19903;-70
2021/12/14 13:08:04;;;;;;;;;;;;;;;;;;5155572;27;19923;-70
2021/12/14 13:10:30;;;;;;;;;;;;;;;;;;5156949;27;19910;-69
2021/12/14 13:12:55;;;;;;;;;;;;;;;;;;5177251;27;19903;-70
2021/12/14 13:15:21;;;;;;;;;;;;;;;;;;5140726;27;19923;-70
2021/12/14 13:17:56;;;;;;;;;;;;;;;;;;5179629;27;19948;-71
2021/12/14 13:20:22;;;;;;;;;;;;;;;;;;5156227;27;19932;-71
2021/12/14 13:22:48;;;;;;;;;;;;;;;;;;5144285;27;19924;-68
2021/12/14 13:25:14;;;;;;;;;;;;;;;;;;5162441;27;19970;-67
2021/12/14 13:27:41;;;;;;;;;;;;;;;;;;5162298;27;19902;-71
2021/12/14 13:30:09;;;;;;;;;;;;;;;;;;5161819;27;19911;-70
2021/12/14 13:32:35;;;;;;;;;;;;;;;;;;5173144;27;19954;-72
2021/12/14 13:35:02;;;;;;;;;;;;;;;;;;5178726;27;19903;-70
2021/12/14 13:37:28;;;;;;;;;;;;;;;;;;5156859;27;19903;-70
2021/12/14 13:39:53;;;;;;;;;;;;;;;;;;5170522;27;19988;-71
2021/12/14 13:42:19;;;;;;;;;;;;;;;;;;5179391;27;19903;-70
2021/12/14 13:44:46;;;;;;;;;;;;;;;;;;5160953;27;19910;-70
2021/12/14 13:47:12;;;;;;;;;;;;;;;;;;5162816;27;19903;-70
2021/12/14 13:49:39;;;;;;;;;;;;;;;;;;5160207;27;19926;-67
2021/12/14 13:52:05;;;;;;;;;;;;;;;;;;5172263;27;19927;-70
2021/12/14 13:54:40;;;;;;;;;;;;;;;;;;5171748;27;19918;-71
2021/12/14 13:57:06;;;;;;;;;;;;;;;;;;5165250;27;19935;-71
2021/12/14 13:59:32;;;;;;;;;;;;;;;;;;5162547;27;19946;-70
2021/12/14 14:01:59;;;;;;;;;;;;;;;;;;5164506;27;19903;-71
2021/12/14 14:04:25;;;;;;;;;;;;;;;;;;5160163;27;19924;-69
2021/12/14 14:06:52;;;;;;;;;;;;;;;;;;5147353;27;19907;-71
2021/12/14 14:09:18;;;;;;;;;;;;;;;;;;5146508;27;19909;-71
2021/12/14 14:11:44;;;;;;;;;;;;;;;;;;5162278;27;19903;-71
2021/12/14 14:14:10;;;;;;;;;;;;;;;;;;5144286;27;19933;-71
2021/12/14 14:16:36;;;;;;;;;;;;;;;;;;5163888;27;19934;-71
2021/12/14 14:19:01;;;;;;;;;;;;;;;;;;5164039;27;19902;-71
2021/12/14 14:21:27;;;;;;;;;;;;;;;;;;5161265;27;19903;-69
2021/12/14 14:23:53;;;;;;;;;;;;;;;;;;5163886;27;19909;-70
2021/12/14 14:26:19;;;;;;;;;;;;;;;;;;5160273;27;19950;-70
2021/12/14 14:28:45;;;;;;;;;;;;;;;;;;5143679;27;19934;-70
2021/12/14 14:31:14;;;;;;;;;;;;;;;;;;5168177;27;19925;-70
2021/12/14 14:33:42;;;;;;;;;;;;;;;;;;5159960;27;19907;-70
2021/12/14 14:36:07;;;;;;;;;;;;;;;;;;5158678;27;19903;-70
2021/12/14 14:38:33;;;;;;;;;;;;;;;;;;5159873;27;19919;-70
2021/12/14 14:40:59;;;;;;;;;;;;;;;;;;5142969;27;19904;-70
2021/12/14 14:43:25;;;;;;;;;;;;;;;;;;5151670;27;19903;-70
2021/12/14 14:45:54;;;;;;;;;;;;;;;;;;5154454;27;19903;-70
2021/12/14 14:48:21;;;;;;;;;;;;;;;;;;5171937;27;19910;-71
2021/12/14 14:50:49;;;;;;;;;;;;;;;;;;5174347;27;19935;-70
2021/12/14 14:53:15;;;;;;;;;;;;;;;;;;5143918;27;19904;-72
2021/12/14 14:55:41;;;;;;;;;;;;;;;;;;5181266;27;19941;-70
2021/12/14 14:58:07;;;;;;;;;;;;;;;;;;5159660;27;19947;-69
2021/12/14 15:00:33;;;;;;;;;;;;;;;;;;5168658;27;19952;-70
2021/12/14 15:02:59;;;;;;;;;;;;;;;;;;5160481;27;19903;-71
2021/12/14 15:05:25;;;;;;;;;;;;;;;;;;5159914;27;19914;-67
2021/12/14 15:07:51;;;;;;;;;;;;;;;;;;5161761;27;19926;-67
2021/12/14 15:10:17;;;;;;;;;;;;;;;;;;5145147;27;19983;-70
2021/12/14 15:12:43;;;;;;;;;;;;;;;;;;5147124;27;19915;-70
2021/12/14 15:15:09;;;;;;;;;;;;;;;;;;5168003;27;19907;-67
2021/12/14 15:17:34;;;;;;;;;;;;;;;;;;5157150;27;19907;-67
2021/12/14 15:20:00;;;;;;;;;;;;;;;;;;5177668;27;19967;-69
2021/12/14 15:22:27;;;;;;;;;;;;;;;;;;5153176;27;19939;-68
2021/12/14 15:24:54;;;;;;;;;;;;;;;;;;5155360;27;19918;-68
2021/12/14 15:27:20;;;;;;;;;;;;;;;;;;5162317;27;19903;-68
2021/12/14 15:29:46;;;;;;;;;;;;;;;;;;5159830;27;19947;-68
2021/12/14 15:32:11;;;;;;;;;;;;;;;;;;5162150;27;20372;-68
2021/12/14 15:34:37;;;;;;;;;;;;;;;;;;5169991;27;19922;-67
2021/12/14 15:37:03;;;;;;;;;;;;;;;;;;5170126;27;19922;-69
2021/12/14 15:39:30;;;;;;;;;;;;;;;;;;5132595;28;19903;-67
2021/12/14 15:41:56;;;;;;;;;;;;;;;;;;5168697;27;19904;-67
2021/12/14 15:47:07;;;;;;;75.57;25.02;;;;;;;;;;5148413;27;20438;-70
2021/12/14 15:49:34;;;;;;;82.13;28.17;;;;;;;;;;5144988;27;20107;-71
2021/12/14 15:52:15;;;;;;;80.70;26.95;;;;;;;;;;5146384;27;20418;-68
2021/12/14 15:54:43;;;;;;;85.75;30.17;;;;;;;;;;5150371;27;20023;-68
2021/12/14 15:57:12;;;;;;;83.63;31.80;;;;;;;;;;5143637;28;20052;-68
2021/12/14 15:59:39;;;;;;;92.38;36.65;;;;;;;;;;5169024;27;20301;-68
2021/12/14 16:02:16;;;;;;;85.78;31.90;;;;;;;;;;5156105;28;20043;-65
2021/12/14 16:04:46;;;;;;;90.05;30.08;;;;;;;;;;5155364;27;20103;-67
2021/12/14 16:07:14;;;;;;;93.63;33.38;;;;;;;;;;5154009;27;20019;-66
2021/12/14 16:09:46;;;;;;;89.63;29.80;;;;;;;;;;5129401;28;20040;-67
2021/12/14 16:15:10;;;;;;;89.97;28.77;;;;;;;;;;5128055;28;20031;-67
2021/12/14 16:17:41;;;;;;;99.38;34.40;;;;;;;;;;5135245;28;20032;-66
2021/12/14 16:20:09;;;;;;;106.88;34.40;;;;;;;;;;5133369;28;20042;-66
2021/12/14 16:22:37;;;;;;;145.80;69.85;;;;;;;;;;5124962;28;20033;-70
2021/12/14 16:25:09;;;;;;;108.88;36.30;;;;;;;;;;5104627;28;20090;-68
2021/12/14 16:27:37;;;;;;;215.48;172.45;;;;;;;;;;5118302;28;20028;-68
2021/12/14 16:30:04;;;;;;;108.32;43.40;;;;;;;;;;5113857;28;20052;-68
2021/12/14 16:32:30;;;;;;;109.68;35.67;;;;;;;;;;5097488;28;20087;-69
2021/12/14 16:34:57;;;;;;;124.80;42.15;;;;;;;;;;5121673;28;20099;-66
2021/12/14 16:37:23;;;;;;;102.50;34.05;;;;;;;;;;5117515;28;20028;-68
2021/12/14 16:39:51;;;;;;;123.30;39.58;;;;;;;;;;5131062;28;20038;-68
2021/12/14 16:42:19;;;;;;;103.32;32.30;;;;;;;;;;5128966;28;20058;-70
2021/12/14 16:44:48;;;;;;;114.80;34.77;;;;;;;;;;5126120;28;20051;-68
2021/12/14 16:47:25;;;;;;;140.20;64.95;;;;;;;;;;5134206;28;20028;-68
2021/12/14 16:49:54;;;;;;;169.80;79.45;;;;;;;;;;5117053;28;20039;-69
2021/12/14 16:52:33;;;;;;;113.65;38.20;;;;;;;;;;5116872;28;20035;-68
2021/12/14 16:54:59;;;;;;;;;;;;;;;;;;5135190;28;20104;-66
2021/12/14 16:57:28;;;;;;;122.40;39.47;;;;;;;;;;5109125;28;19921;-67
2021/12/14 16:59:57;;;;;;;157.93;83.25;;;;;;;;;;5102724;28;20028;-69
2021/12/14 17:02:30;;;;;;;141.10;60.92;;;;;;;;;;5120731;28;20060;-68
2021/12/14 17:04:57;;;;;;;124.90;41.05;;;;;;;;;;5117501;28;20497;-68
2021/12/14 17:07:26;;;;;;;134.38;44.92;;;;;;;;;;5119752;28;20071;-69
2021/12/14 17:09:53;;;;;;;158.68;65.35;;;;;;;;;;5113309;28;20029;-71
2021/12/14 17:12:20;;;;;;;132.60;46.80;;;;;;;;;;5104684;28;20016;-69